Time;durP1;ratioP1;P1;durP2;ratioP2;P2;SDS_P1;SDS_P2;PMS_P1;PMS_P2;Temp;Humidity;BMP_temperature;BMP_pressure;BME280_temperature;BME280_humidity;BME280_pressure;Samples;Min_cycle;Max_cycle;Signal;HPM_P1;HPM_P2
2024/02/18 01:18:09;;;;;;;3.75;1.35;;;;;;;;;;4839204;29;21145;-88
2024/02/18 01:55:10;;;;;;;5.73;1.87;;;;;;;;;;4853201;29;20077;-89
2024/02/18 02:01:41;;;;;;;3.35;1.00;;;;;;;;;;4843868;29;20053;-88
2024/02/18 02:10:51;;;;;;;;;;;;;;;;;;;;;
2024/02/18 06:22:46;;;;;;;4.40;0.90;;;;;;;;;;4769061;30;20530;-89
2024/02/18 06:41:26;;;;;;;3.15;0.73;;;;;;;;;;4681443;30;20088;-87
2024/02/18 06:44:20;;;;;;;2.53;0.88;;;;;;;;;;4661591;30;20042;-89
2024/02/18 06:52:24;;;;;;;5.77;1.27;;;;;;;;;;4859044;29;20054;-89
2024/02/18 06:55:01;;;;;;;16.27;2.20;;;;;;;;;;4844739;29;20045;-86
2024/02/18 06:57:40;;;;;;;2.28;1.08;;;;;;;;;;4994117;24;20029;-88
2024/02/18 07:00:08;;;;;;;2.40;1.00;;;;;;;;;;4843396;29;20053;-85
2024/02/18 07:02:34;;;;;;;3.80;0.85;;;;;;;;;;4858602;29;20041;-84
2024/02/18 07:05:01;;;;;;;2.50;0.77;;;;;;;;;;4859032;29;20041;-89
2024/02/18 07:07:29;;;;;;;2.30;0.90;;;;;;;;;;4841515;29;20049;-90
2024/02/18 07:09:58;;;;;;;3.60;1.15;;;;;;;;;;4843539;29;20048;-87
2024/02/18 07:12:24;;;;;;;6.85;1.77;;;;;;;;;;4845863;29;20124;-84
2024/02/18 07:14:50;;;;;;;2.67;0.73;;;;;;;;;;4853515;29;20073;-85
2024/02/18 07:17:19;;;;;;;2.85;1.45;;;;;;;;;;4839201;29;20191;-85
2024/02/18 07:19:51;;;;;;;3.40;1.38;;;;;;;;;;4839554;29;20053;-86
2024/02/18 07:22:18;;;;;;;2.00;0.75;;;;;;;;;;4841880;29;20506;-90
2024/02/18 07:24:44;;;;;;;2.22;0.80;;;;;;;;;;4843726;29;20413;-91
2024/02/18 07:27:11;;;;;;;2.28;0.80;;;;;;;;;;4843308;29;20061;-87
2024/02/18 07:32:40;;;;;;;4.07;0.73;;;;;;;;;;4846041;29;20823;-85
2024/02/18 07:35:06;;;;;;;2.10;0.65;;;;;;;;;;4845551;29;20559;-89
2024/02/18 07:37:32;;;;;;;3.47;1.00;;;;;;;;;;4844595;29;20050;-89
2024/02/18 07:39:58;;;;;;;1.33;0.50;;;;;;;;;;4846328;29;20052;-91
2024/02/18 07:42:25;;;;;;;5.03;0.70;;;;;;;;;;4845683;29;20305;-89
2024/02/18 07:44:51;;;;;;;1.13;0.30;;;;;;;;;;4855491;29;20526;-90
2024/02/18 07:47:18;;;;;;;2.83;0.60;;;;;;;;;;4853224;29;20042;-85
2024/02/18 07:49:46;;;;;;;2.25;0.68;;;;;;;;;;4853596;29;20056;-85
2024/02/18 07:52:12;;;;;;;6.00;1.00;;;;;;;;;;4833478;29;20034;-91
2024/02/18 07:54:38;;;;;;;2.65;0.93;;;;;;;;;;4843458;29;20523;-88
2024/02/18 07:57:17;;;;;;;2.45;0.52;;;;;;;;;;4847912;29;20037;-88
2024/02/18 07:59:43;;;;;;;4.90;1.45;;;;;;;;;;4825039;29;20142;-90
2024/02/18 08:02:09;;;;;;;2.45;0.70;;;;;;;;;;4807897;29;20837;-86
2024/02/18 08:04:35;;;;;;;2.75;0.57;;;;;;;;;;4816965;29;20406;-87
2024/02/18 08:07:07;;;;;;;2.92;1.02;;;;;;;;;;4788453;29;20490;-89
2024/02/18 08:09:33;;;;;;;2.00;0.50;;;;;;;;;;4798566;29;20113;-89
2024/02/18 08:12:02;;;;;;;2.63;0.80;;;;;;;;;;4806508;29;20042;-88
2024/02/18 08:14:30;;;;;;;1.25;0.52;;;;;;;;;;4808798;29;20067;-89
2024/02/18 08:16:59;;;;;;;2.72;0.90;;;;;;;;;;4790451;29;20561;-89
2024/02/18 08:19:31;;;;;;;2.72;1.20;;;;;;;;;;4791933;29;20046;-88
2024/02/18 08:21:58;;;;;;;4.85;1.35;;;;;;;;;;4792328;29;20129;-86
2024/02/18 08:24:24;;;;;;;2.08;0.65;;;;;;;;;;4813148;29;20454;-92
2024/02/18 08:26:50;;;;;;;4.00;0.95;;;;;;;;;;4849032;29;20072;-90
2024/02/18 08:29:16;;;;;;;3.63;1.15;;;;;;;;;;4848243;29;20487;-89
2024/02/18 08:31:45;;;;;;;7.18;1.23;;;;;;;;;;4865275;29;20045;-87
2024/02/18 08:34:11;;;;;;;4.53;1.05;;;;;;;;;;4858518;29;20041;-88
2024/02/18 08:36:38;;;;;;;1.40;0.55;;;;;;;;;;4864730;29;20563;-87
2024/02/18 08:39:04;;;;;;;4.38;1.50;;;;;;;;;;4858835;29;20074;-88
2024/02/18 08:41:30;;;;;;;1.25;0.60;;;;;;;;;;4846664;29;20468;-89
2024/02/18 08:44:00;;;;;;;1.65;0.55;;;;;;;;;;4846052;29;20038;-89
2024/02/18 08:46:30;;;;;;;6.80;1.25;;;;;;;;;;4845648;29;20080;-90
2024/02/18 08:54:02;;;;;;;1.90;0.80;;;;;;;;;;4908504;24;20072;-88
2024/02/18 08:56:28;;;;;;;3.50;1.10;;;;;;;;;;4842925;29;20046;-89
2024/02/18 08:58:54;;;;;;;1.90;0.73;;;;;;;;;;4845115;29;20050;-89
2024/02/18 09:01:33;;;;;;;;;;;;;;;;;;;;;
2024/02/18 09:04:38;;;;;;;5.00;0.57;;;;;;;;;;4850997;29;20121;-89
2024/02/18 09:17:58;;;;;;;1.90;0.57;;;;;;;;;;4860699;29;20058;-89
2024/02/18 10:18:32;;;;;;;2.90;0.63;;;;;;;;;;4862182;29;20044;-88
2024/02/18 10:20:58;;;;;;;6.20;1.53;;;;;;;;;;4851576;29;20431;-88
2024/02/18 10:23:27;;;;;;;2.50;0.88;;;;;;;;;;4844000;29;20034;-88
2024/02/18 10:25:53;;;;;;;5.28;1.95;;;;;;;;;;4842031;29;20045;-87
2024/02/18 10:28:20;;;;;;;2.45;0.70;;;;;;;;;;4844259;29;20489;-86
2024/02/18 10:30:46;;;;;;;5.75;1.75;;;;;;;;;;4832577;29;20140;-86
2024/02/18 10:33:13;;;;;;;3.33;1.45;;;;;;;;;;4833190;29;20097;-86
2024/02/18 10:35:39;;;;;;;4.05;1.00;;;;;;;;;;4842674;29;20121;-88
2024/02/18 10:38:07;;;;;;;4.20;1.88;;;;;;;;;;4844481;29;20094;-87
2024/02/18 10:43:44;;;;;;;3.35;1.00;;;;;;;;;;4857801;29;20140;-85
2024/02/18 10:46:19;;;;;;;3.08;1.00;;;;;;;;;;4833401;29;20065;-84
2024/02/18 10:49:13;;;;;;;3.00;1.17;;;;;;;;;;4842508;29;20093;-85
2024/02/18 10:51:53;;;;;;;6.22;1.08;;;;;;;;;;4839095;29;20071;-87
2024/02/18 10:58:07;;;;;;;3.53;1.00;;;;;;;;;;4769055;30;20044;-84
2024/02/18 11:00:37;;;;;;;5.75;1.55;;;;;;;;;;4750901;29;20044;-88
2024/02/18 11:03:11;;;;;;;7.22;1.23;;;;;;;;;;4803335;29;20545;-86
2024/02/18 11:05:37;;;;;;;2.47;0.85;;;;;;;;;;4822215;29;20151;-86
2024/02/18 11:08:04;;;;;;;3.17;0.75;;;;;;;;;;4824874;29;20870;-87
2024/02/18 11:10:30;;;;;;;3.95;0.98;;;;;;;;;;4806538;29;20046;-85
2024/02/18 11:12:57;;;;;;;2.53;0.95;;;;;;;;;;4815357;29;20051;-83
2024/02/18 11:15:23;;;;;;;3.53;1.10;;;;;;;;;;4806349;29;20050;-85
2024/02/18 11:17:49;;;;;;;5.72;1.13;;;;;;;;;;4822059;29;20054;-83
2024/02/18 11:20:15;;;;;;;3.03;0.93;;;;;;;;;;4844994;29;20049;-83
2024/02/18 11:22:42;;;;;;;2.22;0.90;;;;;;;;;;4858912;29;20811;-82
2024/02/18 11:25:08;;;;;;;4.53;1.48;;;;;;;;;;4871764;29;20045;-83
2024/02/18 11:27:35;;;;;;;2.33;0.80;;;;;;;;;;4878558;29;20084;-84
2024/02/18 11:30:02;;;;;;;4.88;0.80;;;;;;;;;;4869097;29;20113;-85
2024/02/18 11:32:28;;;;;;;7.25;1.38;;;;;;;;;;4867379;29;20050;-85
2024/02/18 11:34:55;;;;;;;8.10;1.10;;;;;;;;;;4850623;29;20111;-85
2024/02/18 11:37:28;;;;;;;3.72;0.60;;;;;;;;;;4842705;29;20049;-83
2024/02/18 11:39:58;;;;;;;3.90;1.20;;;;;;;;;;4844258;29;20415;-84
2024/02/18 11:42:24;;;;;;;4.07;0.77;;;;;;;;;;4844441;29;20050;-84
2024/02/18 11:44:52;;;;;;;2.13;0.70;;;;;;;;;;4839421;29;20054;-85
2024/02/18 11:47:26;;;;;;;3.70;0.60;;;;;;;;;;4833631;29;20037;-86
2024/02/18 11:50:06;;;;;;;2.33;0.70;;;;;;;;;;4860939;29;20041;-89
2024/02/18 11:57:42;;;;;;;2.47;1.02;;;;;;;;;;4896827;24;20421;-85
2024/02/18 12:03:50;;;;;;;;;;;;;;;;;;;;;
2024/02/18 12:06:22;;;;;;;3.53;1.13;;;;;;;;;;4866421;29;20125;-89
2024/02/18 12:09:05;;;;;;;;;;;;;;;;;;4840451;29;20507;-88
2024/02/18 12:12:12;;;;;;;4.70;0.73;;;;;;;;;;4839482;29;19948;-88
2024/02/18 13:03:11;;;;;;;;;;;;;;;;;;;;;
2024/02/18 14:27:56;;;;;;;5.20;1.10;;;;;;;;;;4789187;29;20062;-87
2024/02/18 14:30:24;;;;;;;;;;;;;;;;;;4788998;30;20047;-89
2024/02/18 14:38:10;;;;;;;3.58;1.10;;;;;;;;;;5370893;23;20025;-84
2024/02/18 14:40:40;;;;;;;5.97;1.90;;;;;;;;;;4821864;24;20315;-85
2024/02/18 14:43:06;;;;;;;5.43;1.88;;;;;;;;;;4842475;29;20049;-89
2024/02/18 14:45:56;;;;;;;;;;;;;;;;;;;;;
2024/02/18 14:54:02;;;;;;;3.92;1.38;;;;;;;;;;4840843;29;20062;-88
2024/02/18 14:56:36;;;;;;;5.93;1.80;;;;;;;;;;4826589;29;20038;-86
2024/02/18 14:59:17;;;;;;;5.45;1.88;;;;;;;;;;4824570;29;20140;-87
2024/02/18 15:01:43;;;;;;;4.78;1.40;;;;;;;;;;4845616;29;20034;-88
2024/02/18 15:04:15;;;;;;;4.43;1.15;;;;;;;;;;4848638;29;20049;-88
2024/02/18 15:09:13;;;;;;;4.80;1.42;;;;;;;;;;4858005;29;19993;-85
2024/02/18 15:11:39;;;;;;;4.95;1.42;;;;;;;;;;4836591;29;20057;-84
2024/02/18 15:14:05;;;;;;;6.32;1.63;;;;;;;;;;4842606;29;20544;-85
2024/02/18 15:16:31;;;;;;;3.78;1.35;;;;;;;;;;4824736;29;20076;-85
2024/02/18 15:18:59;;;;;;;8.80;3.17;;;;;;;;;;4852045;29;20476;-85
2024/02/18 15:21:26;;;;;;;3.67;1.13;;;;;;;;;;4839118;29;20038;-84
2024/02/18 15:23:52;;;;;;;8.75;1.42;;;;;;;;;;4854484;29;20038;-85
2024/02/18 15:26:18;;;;;;;2.40;0.82;;;;;;;;;;4839240;29;20110;-85
2024/02/18 15:28:44;;;;;;;4.40;1.13;;;;;;;;;;4850876;29;20038;-84
2024/02/18 15:31:11;;;;;;;4.65;1.17;;;;;;;;;;4840132;29;20470;-84
2024/02/18 15:33:38;;;;;;;2.42;0.82;;;;;;;;;;4824699;29;20544;-84
2024/02/18 15:36:05;;;;;;;3.58;0.82;;;;;;;;;;4855480;29;20115;-84
2024/02/18 15:38:30;;;;;;;;;;;;;;;;;;4829080;29;20061;-83
2024/02/18 15:40:57;;;;;;;4.18;0.85;;;;;;;;;;4836520;29;20423;-85
2024/02/18 15:43:23;;;;;;;2.72;0.90;;;;;;;;;;4841346;29;20042;-84
2024/02/18 15:45:49;;;;;;;4.38;1.38;;;;;;;;;;4839962;29;20061;-86
2024/02/18 15:48:16;;;;;;;3.30;1.10;;;;;;;;;;4836915;29;20049;-83
2024/02/18 15:50:42;;;;;;;2.97;1.02;;;;;;;;;;4852973;29;20157;-83
2024/02/18 15:53:08;;;;;;;3.20;0.85;;;;;;;;;;4834142;29;20532;-83
2024/02/18 15:55:36;;;;;;;3.20;0.70;;;;;;;;;;4855155;29;20046;-83
2024/02/18 15:58:02;;;;;;;2.03;0.90;;;;;;;;;;4852169;29;20389;-86
2024/02/18 16:00:28;;;;;;;2.83;1.20;;;;;;;;;;4845675;29;20079;-87
2024/02/18 16:02:54;;;;;;;4.88;1.17;;;;;;;;;;4832997;29;20050;-88
2024/02/18 16:05:29;;;;;;;1.27;0.40;;;;;;;;;;4844685;29;20059;-89
2024/02/18 16:11:11;;;;;;;5.50;0.82;;;;;;;;;;4846584;29;20050;-89
2024/02/18 16:13:44;;;;;;;1.42;0.60;;;;;;;;;;4860661;29;20193;-89
2024/02/18 16:16:20;;;;;;;3.75;0.73;;;;;;;;;;4844137;29;20069;-89
2024/02/18 16:18:49;;;;;;;2.33;0.80;;;;;;;;;;4843031;29;20076;-90
2024/02/18 16:21:15;;;;;;;5.15;1.05;;;;;;;;;;4831597;29;20057;-89
2024/02/18 16:23:57;;;;;;;3.08;1.17;;;;;;;;;;4838738;29;20091;-89
2024/02/18 16:26:23;;;;;;;2.47;0.88;;;;;;;;;;4838368;29;20124;-87
2024/02/18 16:28:49;;;;;;;1.75;0.73;;;;;;;;;;4831888;29;20561;-86
2024/02/18 16:31:15;;;;;;;3.97;1.20;;;;;;;;;;4827884;29;20659;-84
2024/02/18 16:33:41;;;;;;;4.00;1.17;;;;;;;;;;4835629;29;20081;-85
2024/02/18 16:36:07;;;;;;;4.78;1.33;;;;;;;;;;4859958;29;20404;-85
2024/02/18 16:38:34;;;;;;;3.45;0.88;;;;;;;;;;4843300;29;20045;-84
2024/02/18 16:41:00;;;;;;;3.00;1.00;;;;;;;;;;4857583;29;20046;-85
2024/02/18 16:43:28;;;;;;;3.70;1.02;;;;;;;;;;4835735;29;20045;-85
2024/02/18 16:45:54;;;;;;;1.88;0.65;;;;;;;;;;4860591;29;20459;-85
2024/02/18 16:48:21;;;;;;;8.05;1.15;;;;;;;;;;4840425;29;20057;-86
2024/02/18 16:50:47;;;;;;;3.95;1.17;;;;;;;;;;4841377;29;20552;-84
2024/02/18 16:53:13;;;;;;;7.10;1.35;;;;;;;;;;4857608;29;20403;-85
2024/02/18 16:55:39;;;;;;;5.35;1.25;;;;;;;;;;4842472;29;20045;-85
2024/02/18 16:58:06;;;;;;;4.68;1.50;;;;;;;;;;4832345;29;20046;-84
2024/02/18 17:00:32;;;;;;;4.05;1.38;;;;;;;;;;4848054;29;20041;-84
2024/02/18 17:02:58;;;;;;;5.00;1.20;;;;;;;;;;4853743;29;20078;-84
2024/02/18 17:05:24;;;;;;;2.33;1.02;;;;;;;;;;4842501;29;20041;-85
2024/02/18 17:07:50;;;;;;;3.22;1.05;;;;;;;;;;4842563;29;20560;-86
2024/02/18 17:10:19;;;;;;;6.70;2.28;;;;;;;;;;4839754;29;20501;-88
2024/02/18 17:12:45;;;;;;;3.80;1.08;;;;;;;;;;4840867;29;20441;-86
2024/02/18 17:15:16;;;;;;;4.28;1.13;;;;;;;;;;4859328;24;20842;-87
2024/02/18 17:17:42;;;;;;;2.00;0.70;;;;;;;;;;4835749;29;20081;-85
2024/02/18 17:20:09;;;;;;;2.90;0.68;;;;;;;;;;4843056;29;20084;-86
2024/02/18 17:22:35;;;;;;;1.70;0.70;;;;;;;;;;4829078;29;20046;-85
2024/02/18 17:25:01;;;;;;;4.53;1.30;;;;;;;;;;4842363;29;20045;-86
2024/02/18 17:27:27;;;;;;;2.03;0.77;;;;;;;;;;4851626;29;20485;-86
2024/02/18 17:29:53;;;;;;;2.53;0.93;;;;;;;;;;4825280;29;20126;-86
2024/02/18 17:32:26;;;;;;;2.10;0.93;;;;;;;;;;4842445;29;20038;-89
2024/02/18 17:40:14;;;;;;;6.22;1.42;;;;;;;;;;4838503;29;20095;-87
2024/02/18 17:42:40;;;;;;;;;;;;;;;;;;4842515;29;20042;-86
2024/02/18 18:43:40;;;;;;;;;;;;;;;;;;;;;
2024/02/18 18:49:31;;;;;;;3.92;0.80;;;;;;;;;;5077787;24;20024;-84
2024/02/18 18:51:57;;;;;;;21.17;1.52;;;;;;;;;;4845541;29;20057;-85
2024/02/18 18:54:39;;;;;;;4.88;1.10;;;;;;;;;;4853663;29;20061;-85
2024/02/18 18:57:05;;;;;;;6.75;1.58;;;;;;;;;;4844588;29;20044;-83
2024/02/18 18:59:32;;;;;;;4.03;1.30;;;;;;;;;;4847080;29;20053;-83
2024/02/18 19:01:58;;;;;;;4.00;0.90;;;;;;;;;;4855171;29;20069;-82
2024/02/18 19:04:24;;;;;;;3.85;1.00;;;;;;;;;;4864792;29;20314;-85
2024/02/18 19:15:15;;;;;;;5.75;1.30;;;;;;;;;;4781633;29;20047;-86
2024/02/18 19:18:02;;;;;;;3.33;1.13;;;;;;;;;;4810111;29;20580;-87
2024/02/18 19:20:28;;;;;;;10.27;0.98;;;;;;;;;;4821894;29;20559;-85
2024/02/18 19:22:54;;;;;;;3.05;1.23;;;;;;;;;;4843019;29;20045;-84
2024/02/18 19:25:20;;;;;;;5.60;1.35;;;;;;;;;;4857457;29;20493;-84
2024/02/18 19:27:46;;;;;;;3.25;0.95;;;;;;;;;;4826247;29;20042;-86
2024/02/18 19:30:15;;;;;;;4.00;1.05;;;;;;;;;;4825023;29;20481;-85
2024/02/18 19:32:41;;;;;;;4.13;1.40;;;;;;;;;;4819743;29;20443;-83
2024/02/18 19:35:08;;;;;;;4.20;0.82;;;;;;;;;;4855562;29;20045;-84
2024/02/18 19:37:34;;;;;;;6.85;1.80;;;;;;;;;;4823685;29;20038;-84
2024/02/18 19:40:00;;;;;;;3.42;1.05;;;;;;;;;;4815856;29;20099;-84
2024/02/18 19:42:30;;;;;;;5.57;1.75;;;;;;;;;;4839991;29;20469;-84
2024/02/18 19:44:56;;;;;;;3.78;1.10;;;;;;;;;;4838493;29;20039;-84
2024/02/18 22:12:21;;;;;;;10.77;2.08;;;;;;;;;;4856873;27;20065;-86
2024/02/18 22:14:50;;;;;;;3.28;1.00;;;;;;;;;;4842947;29;20057;-86
2024/02/18 22:18:05;;;;;;;;;;;;;;;;;;;;;
2024/02/18 22:21:06;;;;;;;2.65;0.60;;;;;;;;;;4839155;29;20152;-86
2024/02/18 22:24:03;;;;;;;3.08;0.85;;;;;;;;;;4837421;29;20438;-86
2024/02/18 23:11:08;;;;;;;5.57;1.70;;;;;;;;;;4847737;27;20061;-86
2024/02/18 23:14:07;;;;;;;;;;;;;;;;;;;;;
2024/02/18 23:17:10;;;;;;;;;;;;;;;;;;;;;
